sensor_id;sensor_type;location;lat;lon;timestamp;pressure;altitude;pressure_sealevel;temperature;humidity
47522;BME280;32291;52.010;4.446;2023-04-28T00:00:27;78694.34;;;-144.67;77.64
47522;BME280;32291;52.010;4.446;2023-04-28T00:01:29;78690.06;;;-144.67;77.84
47522;BME280;32291;52.010;4.446;2023-04-28T00:02:31;78694.34;;;-144.67;78.43
47522;BME280;32291;52.010;4.446;2023-04-28T00:03:33;78694.34;;;-144.67;78.46
47522;BME280;32291;52.010;4.446;2023-04-28T00:04:35;78687.91;;;-144.67;78.50
47522;BME280;32291;52.010;4.446;2023-04-28T00:05:37;78690.06;;;-144.67;78.60
47522;BME280;32291;52.010;4.446;2023-04-28T00:06:40;78687.91;;;-144.67;78.56
47522;BME280;32291;52.010;4.446;2023-04-28T00:07:42;78681.50;;;-144.67;78.78
47522;BME280;32291;52.010;4.446;2023-04-28T00:08:44;78672.94;;;-144.67;78.41
47522;BME280;32291;52.010;4.446;2023-04-28T00:09:46;78664.38;;;-144.67;78.08
47522;BME280;32291;52.010;4.446;2023-04-28T00:10:48;78664.38;;;-144.67;77.93
47522;BME280;32291;52.010;4.446;2023-04-28T00:11:50;78664.38;;;-144.67;77.72
47522;BME280;32291;52.010;4.446;2023-04-28T00:12:52;78664.38;;;-144.67;77.55
47522;BME280;32291;52.010;4.446;2023-04-28T00:13:54;78664.38;;;-144.67;77.31
47522;BME280;32291;52.010;4.446;2023-04-28T00:14:56;78664.38;;;-144.67;77.07
47522;BME280;32291;52.010;4.446;2023-04-28T00:15:58;78655.81;;;-144.67;77.14
47522;BME280;32291;52.010;4.446;2023-04-28T00:17:01;78651.53;;;-144.67;77.11
47522;BME280;32291;52.010;4.446;2023-04-28T00:18:03;78647.22;;;-144.67;77.06
47522;BME280;32291;52.010;4.446;2023-04-28T00:19:05;78651.53;;;-144.67;76.80
47522;BME280;32291;52.010;4.446;2023-04-28T00:20:08;78649.38;;;-144.67;76.54
47522;BME280;32291;52.010;4.446;2023-04-28T00:21:10;78649.38;;;-144.67;76.68
47522;BME280;32291;52.010;4.446;2023-04-28T00:22:12;78649.38;;;-144.67;76.91
47522;BME280;32291;52.010;4.446;2023-04-28T00:23:16;78642.94;;;-144.67;76.94
47522;BME280;32291;52.010;4.446;2023-04-28T00:24:17;78638.66;;;-144.67;77.04
47522;BME280;32291;52.010;4.446;2023-04-28T00:25:19;78640.81;;;-144.67;76.64
47522;BME280;32291;52.010;4.446;2023-04-28T00:26:21;78634.38;;;-144.67;76.80
47522;BME280;32291;52.010;4.446;2023-04-28T00:27:23;78630.09;;;-144.67;76.42
47522;BME280;32291;52.010;4.446;2023-04-28T00:28:26;78627.97;;;-144.67;76.13
47522;BME280;32291;52.010;4.446;2023-04-28T00:29:28;78621.53;;;-144.67;76.25
47522;BME280;32291;52.010;4.446;2023-04-28T00:30:30;78623.69;;;-144.67;76.48
47522;BME280;32291;52.010;4.446;2023-04-28T00:31:32;78621.53;;;-144.67;76.72
47522;BME280;32291;52.010;4.446;2023-04-28T00:32:35;78619.41;;;-144.67;77.07
47522;BME280;32291;52.010;4.446;2023-04-28T00:33:38;78617.25;;;-144.67;77.21
47522;BME280;32291;52.010;4.446;2023-04-28T00:34:40;78615.13;;;-144.67;77.18
47522;BME280;32291;52.010;4.446;2023-04-28T00:35:42;78612.97;;;-144.67;76.64
47522;BME280;32291;52.010;4.446;2023-04-28T00:36:44;78612.97;;;-144.67;76.54
47522;BME280;32291;52.010;4.446;2023-04-28T00:37:46;78608.69;;;-144.67;76.68
47522;BME280;32291;52.010;4.446;2023-04-28T00:38:48;78604.41;;;-144.67;76.59
47522;BME280;32291;52.010;4.446;2023-04-28T00:39:56;78612.97;;;-144.67;76.78
47522;BME280;32291;52.010;4.446;2023-04-28T00:40:58;78604.41;;;-144.67;76.48
47522;BME280;32291;52.010;4.446;2023-04-28T00:42:00;78600.13;;;-144.67;76.28
47522;BME280;32291;52.010;4.446;2023-04-28T00:43:04;78595.84;;;-144.67;76.49
47522;BME280;32291;52.010;4.446;2023-04-28T00:44:07;78604.41;;;-144.67;76.25
47522;BME280;32291;52.010;4.446;2023-04-28T00:45:08;78602.28;;;-144.67;76.36
47522;BME280;32291;52.010;4.446;2023-04-28T00:46:21;78604.41;;;-144.67;76.44
47522;BME280;32291;52.010;4.446;2023-04-28T00:47:25;78600.13;;;-144.67;76.76
47522;BME280;32291;52.010;4.446;2023-04-28T00:48:27;78587.28;;;-144.67;76.69
47522;BME280;32291;52.010;4.446;2023-04-28T00:49:30;78591.56;;;-144.67;76.75
47522;BME280;32291;52.010;4.446;2023-04-28T00:50:35;78591.56;;;-144.67;76.38
47522;BME280;32291;52.010;4.446;2023-04-28T00:51:37;78585.13;;;-144.67;76.34
47522;BME280;32291;52.010;4.446;2023-04-28T00:52:39;78587.28;;;-144.67;76.28
47522;BME280;32291;52.010;4.446;2023-04-28T00:53:42;78587.28;;;-144.67;76.31
47522;BME280;32291;52.010;4.446;2023-04-28T00:54:44;78595.84;;;-144.67;75.80
47522;BME280;32291;52.010;4.446;2023-04-28T00:55:49;78598.00;;;-144.67;76.01
47522;BME280;32291;52.010;4.446;2023-04-28T00:56:53;78587.28;;;-144.67;76.08
47522;BME280;32291;52.010;4.446;2023-04-28T00:57:55;78587.28;;;-144.67;76.04
47522;BME280;32291;52.010;4.446;2023-04-28T00:58:58;78589.41;;;-144.67;76.02
47522;BME280;32291;52.010;4.446;2023-04-28T01:00:00;78591.56;;;-144.67;76.12
47522;BME280;32291;52.010;4.446;2023-04-28T01:01:07;78589.41;;;-144.67;76.00
47522;BME280;32291;52.010;4.446;2023-04-28T01:02:10;78583.00;;;-144.67;76.14
47522;BME280;32291;52.010;4.446;2023-04-28T01:03:17;78572.28;;;-144.67;76.24
47522;BME280;32291;52.010;4.446;2023-04-28T01:04:20;78565.88;;;-144.67;76.24
47522;BME280;32291;52.010;4.446;2023-04-28T01:05:27;78563.72;;;-144.67;76.02
47522;BME280;32291;52.010;4.446;2023-04-28T01:06:30;78561.59;;;-144.67;76.09
47522;BME280;32291;52.010;4.446;2023-04-28T01:07:32;78563.72;;;-144.67;75.94
47522;BME280;32291;52.010;4.446;2023-04-28T01:08:37;78565.88;;;-144.67;76.04
47522;BME280;32291;52.010;4.446;2023-04-28T01:09:38;78561.59;;;-144.67;76.26
47522;BME280;32291;52.010;4.446;2023-04-28T01:10:43;78557.31;;;-144.67;75.75
47522;BME280;32291;52.010;4.446;2023-04-28T01:11:45;78557.31;;;-144.67;75.24
47522;BME280;32291;52.010;4.446;2023-04-28T01:12:47;78553.03;;;-144.67;74.95
47522;BME280;32291;52.010;4.446;2023-04-28T01:13:49;78548.75;;;-144.67;74.94
47522;BME280;32291;52.010;4.446;2023-04-28T01:14:51;78544.47;;;-144.67;75.21
47522;BME280;32291;52.010;4.446;2023-04-28T01:15:54;78542.31;;;-144.67;75.25
47522;BME280;32291;52.010;4.446;2023-04-28T01:16:56;78546.59;;;-144.67;75.54
47522;BME280;32291;52.010;4.446;2023-04-28T01:17:59;78542.31;;;-144.67;75.22
47522;BME280;32291;52.010;4.446;2023-04-28T01:19:01;78544.47;;;-144.67;75.19
47522;BME280;32291;52.010;4.446;2023-04-28T01:20:03;78550.88;;;-144.67;75.35
47522;BME280;32291;52.010;4.446;2023-04-28T01:21:05;78544.47;;;-144.67;75.44
47522;BME280;32291;52.010;4.446;2023-04-28T01:22:08;78542.31;;;-144.67;74.82
47522;BME280;32291;52.010;4.446;2023-04-28T01:23:16;78546.59;;;-144.67;74.96
47522;BME280;32291;52.010;4.446;2023-04-28T01:24:19;78544.47;;;-144.67;74.77
47522;BME280;32291;52.010;4.446;2023-04-28T01:25:21;78548.75;;;-144.67;74.81
47522;BME280;32291;52.010;4.446;2023-04-28T01:26:23;78546.59;;;-144.67;74.89
47522;BME280;32291;52.010;4.446;2023-04-28T01:27:25;78544.47;;;-144.67;74.98
47522;BME280;32291;52.010;4.446;2023-04-28T01:28:28;78548.75;;;-144.67;74.94
47522;BME280;32291;52.010;4.446;2023-04-28T01:29:30;78546.59;;;-144.67;74.21
47522;BME280;32291;52.010;4.446;2023-04-28T01:30:31;78544.47;;;-144.67;74.37
47522;BME280;32291;52.010;4.446;2023-04-28T01:31:33;78533.75;;;-144.67;74.09
47522;BME280;32291;52.010;4.446;2023-04-28T01:32:35;78542.31;;;-144.67;74.32
47522;BME280;32291;52.010;4.446;2023-04-28T01:33:37;78535.91;;;-144.67;74.29
47522;BME280;32291;52.010;4.446;2023-04-28T01:34:39;78535.91;;;-144.67;73.82
47522;BME280;32291;52.010;4.446;2023-04-28T01:35:41;78527.31;;;-144.67;74.06
47522;BME280;32291;52.010;4.446;2023-04-28T01:36:43;78527.31;;;-144.67;73.97
47522;BME280;32291;52.010;4.446;2023-04-28T01:37:45;78523.03;;;-144.67;73.97
47522;BME280;32291;52.010;4.446;2023-04-28T01:38:46;78518.75;;;-144.67;73.77
47522;BME280;32291;52.010;4.446;2023-04-28T01:39:48;78518.75;;;-144.67;73.87
47522;BME280;32291;52.010;4.446;2023-04-28T01:40:50;78514.47;;;-144.67;73.85
47522;BME280;32291;52.010;4.446;2023-04-28T01:41:51;78510.19;;;-144.67;73.66
47522;BME280;32291;52.010;4.446;2023-04-28T01:42:53;78516.63;;;-144.67;73.71
47522;BME280;32291;52.010;4.446;2023-04-28T01:43:55;78514.47;;;-144.67;73.24
47522;BME280;32291;52.010;4.446;2023-04-28T01:44:56;78518.75;;;-144.67;73.47
47522;BME280;32291;52.010;4.446;2023-04-28T01:45:58;78516.63;;;-144.67;73.44
47522;BME280;32291;52.010;4.446;2023-04-28T01:47:00;78520.91;;;-144.67;73.16
47522;BME280;32291;52.010;4.446;2023-04-28T01:48:02;78527.31;;;-144.67;73.03
47522;BME280;32291;52.010;4.446;2023-04-28T01:49:06;78531.63;;;-144.67;72.91
47522;BME280;32291;52.010;4.446;2023-04-28T01:50:08;78527.31;;;-144.67;72.89
47522;BME280;32291;52.010;4.446;2023-04-28T01:51:10;78523.03;;;-144.67;72.76
47522;BME280;32291;52.010;4.446;2023-04-28T01:52:13;78518.75;;;-144.67;72.77
47522;BME280;32291;52.010;4.446;2023-04-28T01:53:15;78518.75;;;-144.67;72.97
47522;BME280;32291;52.010;4.446;2023-04-28T01:54:21;78527.31;;;-144.67;73.46
47522;BME280;32291;52.010;4.446;2023-04-28T01:55:23;78527.31;;;-144.67;73.41
47522;BME280;32291;52.010;4.446;2023-04-28T01:56:25;78523.03;;;-144.67;73.32
47522;BME280;32291;52.010;4.446;2023-04-28T01:57:27;78508.06;;;-144.67;73.08
47522;BME280;32291;52.010;4.446;2023-04-28T01:58:29;78503.78;;;-144.67;72.90
47522;BME280;32291;52.010;4.446;2023-04-28T01:59:31;78505.91;;;-144.67;73.00
47522;BME280;32291;52.010;4.446;2023-04-28T02:00:33;78512.34;;;-144.67;72.84
47522;BME280;32291;52.010;4.446;2023-04-28T02:01:35;78503.78;;;-144.67;72.76
47522;BME280;32291;52.010;4.446;2023-04-28T02:02:36;78501.63;;;-144.67;72.52
47522;BME280;32291;52.010;4.446;2023-04-28T02:03:38;78501.63;;;-144.67;72.26
47522;BME280;32291;52.010;4.446;2023-04-28T02:04:40;78505.91;;;-144.67;72.52
47522;BME280;32291;52.010;4.446;2023-04-28T02:05:45;78505.91;;;-144.67;72.78
47522;BME280;32291;52.010;4.446;2023-04-28T02:06:47;78505.91;;;-144.67;72.85
47522;BME280;32291;52.010;4.446;2023-04-28T02:07:48;78505.91;;;-144.67;72.55
47522;BME280;32291;52.010;4.446;2023-04-28T02:08:51;78501.63;;;-144.67;72.37
47522;BME280;32291;52.010;4.446;2023-04-28T02:09:52;78503.78;;;-144.67;72.40
47522;BME280;32291;52.010;4.446;2023-04-28T02:10:54;78508.06;;;-144.67;72.74
47522;BME280;32291;52.010;4.446;2023-04-28T02:11:57;78508.06;;;-144.67;73.02
47522;BME280;32291;52.010;4.446;2023-04-28T02:13:00;78510.19;;;-144.67;73.21
47522;BME280;32291;52.010;4.446;2023-04-28T02:14:02;78510.19;;;-144.67;73.27
47522;BME280;32291;52.010;4.446;2023-04-28T02:15:05;78514.47;;;-144.67;73.28
47522;BME280;32291;52.010;4.446;2023-04-28T02:16:07;78505.91;;;-144.67;73.30
47522;BME280;32291;52.010;4.446;2023-04-28T02:17:09;78505.91;;;-144.67;73.12
47522;BME280;32291;52.010;4.446;2023-04-28T02:18:11;78505.91;;;-144.67;73.35
47522;BME280;32291;52.010;4.446;2023-04-28T02:19:14;78495.22;;;-144.67;73.31
47522;BME280;32291;52.010;4.446;2023-04-28T02:20:16;78499.50;;;-144.67;73.39
47522;BME280;32291;52.010;4.446;2023-04-28T02:21:18;78501.63;;;-144.67;73.78
47522;BME280;32291;52.010;4.446;2023-04-28T02:22:19;78505.91;;;-144.67;73.81
47522;BME280;32291;52.010;4.446;2023-04-28T02:23:21;78497.34;;;-144.67;74.09
47522;BME280;32291;52.010;4.446;2023-04-28T02:24:23;78501.63;;;-144.67;73.64
47522;BME280;32291;52.010;4.446;2023-04-28T02:25:24;78501.63;;;-144.67;73.75
47522;BME280;32291;52.010;4.446;2023-04-28T02:26:26;78501.63;;;-144.67;73.87
47522;BME280;32291;52.010;4.446;2023-04-28T02:27:28;78501.63;;;-144.67;73.88
47522;BME280;32291;52.010;4.446;2023-04-28T02:28:30;78495.22;;;-144.67;73.84
47522;BME280;32291;52.010;4.446;2023-04-28T02:29:32;78503.78;;;-144.67;73.63
47522;BME280;32291;52.010;4.446;2023-04-28T02:30:34;78497.34;;;-144.67;73.51
47522;BME280;32291;52.010;4.446;2023-04-28T02:31:35;78490.94;;;-144.67;73.71
47522;BME280;32291;52.010;4.446;2023-04-28T02:32:37;78499.50;;;-144.67;73.68
47522;BME280;32291;52.010;4.446;2023-04-28T02:33:39;78482.38;;;-144.67;73.65
47522;BME280;32291;52.010;4.446;2023-04-28T02:34:45;78488.78;;;-144.67;73.54
47522;BME280;32291;52.010;4.446;2023-04-28T02:35:47;78488.78;;;-144.67;73.33
47522;BME280;32291;52.010;4.446;2023-04-28T02:36:59;78486.66;;;-144.67;73.37
47522;BME280;32291;52.010;4.446;2023-04-28T02:38:01;78480.22;;;-144.67;73.22
47522;BME280;32291;52.010;4.446;2023-04-28T02:39:02;78480.22;;;-144.67;73.04
47522;BME280;32291;52.010;4.446;2023-04-28T02:40:05;78473.81;;;-144.67;73.18
47522;BME280;32291;52.010;4.446;2023-04-28T02:41:07;78478.09;;;-144.67;73.23
47522;BME280;32291;52.010;4.446;2023-04-28T02:42:09;78473.81;;;-144.67;73.32
47522;BME280;32291;52.010;4.446;2023-04-28T02:43:11;78480.22;;;-144.67;73.39
47522;BME280;32291;52.010;4.446;2023-04-28T02:44:13;78480.22;;;-144.67;73.30
47522;BME280;32291;52.010;4.446;2023-04-28T02:45:14;78493.06;;;-144.67;73.53
47522;BME280;32291;52.010;4.446;2023-04-28T02:46:16;78478.09;;;-144.67;73.51
47522;BME280;32291;52.010;4.446;2023-04-28T02:47:18;78488.78;;;-144.67;73.18
47522;BME280;32291;52.010;4.446;2023-04-28T02:48:20;78484.50;;;-144.67;73.35
47522;BME280;32291;52.010;4.446;2023-04-28T02:49:23;78488.78;;;-144.67;73.59
47522;BME280;32291;52.010;4.446;2023-04-28T02:50:25;78482.38;;;-144.67;73.35
47522;BME280;32291;52.010;4.446;2023-04-28T02:51:27;78488.78;;;-144.67;73.57
47522;BME280;32291;52.010;4.446;2023-04-28T02:52:29;78486.66;;;-144.67;73.76
47522;BME280;32291;52.010;4.446;2023-04-28T02:53:31;78484.50;;;-144.67;74.06
47522;BME280;32291;52.010;4.446;2023-04-28T02:54:32;78482.38;;;-144.67;73.98
47522;BME280;32291;52.010;4.446;2023-04-28T02:55:35;78484.50;;;-144.67;73.86
47522;BME280;32291;52.010;4.446;2023-04-28T02:56:37;78475.94;;;-144.67;73.94
47522;BME280;32291;52.010;4.446;2023-04-28T02:57:41;78480.22;;;-144.67;73.93
47522;BME280;32291;52.010;4.446;2023-04-28T02:58:43;78475.94;;;-144.67;73.94
47522;BME280;32291;52.010;4.446;2023-04-28T02:59:45;78471.66;;;-144.67;74.01
47522;BME280;32291;52.010;4.446;2023-04-28T03:00:47;78475.94;;;-144.67;73.96
47522;BME280;32291;52.010;4.446;2023-04-28T03:01:49;78480.22;;;-144.67;74.29
47522;BME280;32291;52.010;4.446;2023-04-28T03:02:52;78482.38;;;-144.67;74.09
47522;BME280;32291;52.010;4.446;2023-04-28T03:03:55;78480.22;;;-144.67;73.94
47522;BME280;32291;52.010;4.446;2023-04-28T03:04:57;78469.53;;;-144.67;74.16
47522;BME280;32291;52.010;4.446;2023-04-28T03:05:59;78471.66;;;-144.67;73.94
47522;BME280;32291;52.010;4.446;2023-04-28T03:07:01;78471.66;;;-144.67;74.13
47522;BME280;32291;52.010;4.446;2023-04-28T03:08:03;78473.81;;;-144.67;74.21
47522;BME280;32291;52.010;4.446;2023-04-28T03:09:05;78482.38;;;-144.67;74.29
47522;BME280;32291;52.010;4.446;2023-04-28T03:10:07;78469.53;;;-144.67;74.13
47522;BME280;32291;52.010;4.446;2023-04-28T03:11:09;78473.81;;;-144.67;73.82
47522;BME280;32291;52.010;4.446;2023-04-28T03:12:11;78467.38;;;-144.67;73.89
47522;BME280;32291;52.010;4.446;2023-04-28T03:13:13;78463.09;;;-144.67;74.06
47522;BME280;32291;52.010;4.446;2023-04-28T03:14:15;78467.38;;;-144.67;74.16
47522;BME280;32291;52.010;4.446;2023-04-28T03:15:17;78463.09;;;-144.67;74.07
47522;BME280;32291;52.010;4.446;2023-04-28T03:16:19;78467.38;;;-144.67;74.31
47522;BME280;32291;52.010;4.446;2023-04-28T03:17:21;78463.09;;;-144.67;74.40
47522;BME280;32291;52.010;4.446;2023-04-28T03:18:22;78465.25;;;-144.67;74.16
47522;BME280;32291;52.010;4.446;2023-04-28T03:19:24;78465.25;;;-144.67;74.28
47522;BME280;32291;52.010;4.446;2023-04-28T03:20:26;78463.09;;;-144.67;74.34
47522;BME280;32291;52.010;4.446;2023-04-28T03:21:28;78467.38;;;-144.67;74.43
47522;BME280;32291;52.010;4.446;2023-04-28T03:22:30;78471.66;;;-144.67;74.47
47522;BME280;32291;52.010;4.446;2023-04-28T03:23:32;78454.53;;;-144.67;74.33
47522;BME280;32291;52.010;4.446;2023-04-28T03:24:34;78452.38;;;-144.67;74.39
47522;BME280;32291;52.010;4.446;2023-04-28T03:25:36;78450.25;;;-144.67;74.61
47522;BME280;32291;52.010;4.446;2023-04-28T03:26:38;78454.53;;;-144.67;74.23
47522;BME280;32291;52.010;4.446;2023-04-28T03:27:40;78450.25;;;-144.67;74.39
47522;BME280;32291;52.010;4.446;2023-04-28T03:28:41;78450.25;;;-144.67;74.66
47522;BME280;32291;52.010;4.446;2023-04-28T03:29:43;78452.38;;;-144.67;74.64
47522;BME280;32291;52.010;4.446;2023-04-28T03:30:45;78463.09;;;-144.67;75.09
47522;BME280;32291;52.010;4.446;2023-04-28T03:31:47;78454.53;;;-144.67;75.20
47522;BME280;32291;52.010;4.446;2023-04-28T03:32:49;78458.81;;;-144.67;75.48
47522;BME280;32291;52.010;4.446;2023-04-28T03:33:50;78454.53;;;-144.67;75.52
47522;BME280;32291;52.010;4.446;2023-04-28T03:34:52;78454.53;;;-144.67;75.63
47522;BME280;32291;52.010;4.446;2023-04-28T03:35:53;78441.69;;;-144.67;75.54
47522;BME280;32291;52.010;4.446;2023-04-28T03:36:55;78441.69;;;-144.67;75.49
47522;BME280;32291;52.010;4.446;2023-04-28T03:37:57;78454.53;;;-144.67;75.88
47522;BME280;32291;52.010;4.446;2023-04-28T03:38:59;78443.81;;;-144.67;75.52
47522;BME280;32291;52.010;4.446;2023-04-28T03:40:00;78437.41;;;-144.67;75.67
47522;BME280;32291;52.010;4.446;2023-04-28T03:41:02;78441.69;;;-144.67;75.64
47522;BME280;32291;52.010;4.446;2023-04-28T03:42:03;78439.53;;;-144.67;75.78
47522;BME280;32291;52.010;4.446;2023-04-28T03:43:05;78437.41;;;-144.67;75.85
47522;BME280;32291;52.010;4.446;2023-04-28T03:44:07;78433.13;;;-144.67;75.78
47522;BME280;32291;52.010;4.446;2023-04-28T03:45:09;78437.41;;;-144.67;76.02
47522;BME280;32291;52.010;4.446;2023-04-28T03:46:11;78430.97;;;-144.67;75.78
47522;BME280;32291;52.010;4.446;2023-04-28T03:47:16;78433.13;;;-144.67;75.39
47522;BME280;32291;52.010;4.446;2023-04-28T03:48:17;78424.56;;;-144.67;75.44
47522;BME280;32291;52.010;4.446;2023-04-28T03:49:19;78433.13;;;-144.67;75.33
47522;BME280;32291;52.010;4.446;2023-04-28T03:50:21;78426.69;;;-144.67;75.37
47522;BME280;32291;52.010;4.446;2023-04-28T03:51:23;78433.13;;;-144.67;75.69
47522;BME280;32291;52.010;4.446;2023-04-28T03:52:25;78424.56;;;-144.67;75.84
47522;BME280;32291;52.010;4.446;2023-04-28T03:53:27;78428.84;;;-144.67;75.65
47522;BME280;32291;52.010;4.446;2023-04-28T03:54:29;78433.13;;;-144.67;75.59
47522;BME280;32291;52.010;4.446;2023-04-28T03:55:31;78439.53;;;-144.67;75.68
47522;BME280;32291;52.010;4.446;2023-04-28T03:56:34;78433.13;;;-144.67;76.19
47522;BME280;32291;52.010;4.446;2023-04-28T03:57:36;78430.97;;;-144.67;76.04
47522;BME280;32291;52.010;4.446;2023-04-28T03:58:38;78428.84;;;-144.67;76.18
47522;BME280;32291;52.010;4.446;2023-04-28T03:59:40;78433.13;;;-144.67;76.44
47522;BME280;32291;52.010;4.446;2023-04-28T04:00:41;78437.41;;;-144.67;76.51
47522;BME280;32291;52.010;4.446;2023-04-28T04:01:43;78428.84;;;-144.67;76.90
47522;BME280;32291;52.010;4.446;2023-04-28T04:02:44;78433.13;;;-144.67;76.73
47522;BME280;32291;52.010;4.446;2023-04-28T04:03:47;78428.84;;;-144.67;76.80
47522;BME280;32291;52.010;4.446;2023-04-28T04:04:48;78430.97;;;-144.67;76.79
47522;BME280;32291;52.010;4.446;2023-04-28T04:05:50;78424.56;;;-144.67;76.82
47522;BME280;32291;52.010;4.446;2023-04-28T04:06:52;78424.56;;;-144.67;76.90
47522;BME280;32291;52.010;4.446;2023-04-28T04:07:53;78424.56;;;-144.67;76.89
47522;BME280;32291;52.010;4.446;2023-04-28T04:08:55;78418.13;;;-144.67;76.76
47522;BME280;32291;52.010;4.446;2023-04-28T04:09:57;78411.72;;;-144.67;76.94
47522;BME280;32291;52.010;4.446;2023-04-28T04:10:59;78416.00;;;-144.67;76.89
47522;BME280;32291;52.010;4.446;2023-04-28T04:12:01;78411.72;;;-144.67;77.13
47522;BME280;32291;52.010;4.446;2023-04-28T04:13:02;78416.00;;;-144.67;77.45
47522;BME280;32291;52.010;4.446;2023-04-28T04:14:04;78411.72;;;-144.67;77.50
47522;BME280;32291;52.010;4.446;2023-04-28T04:15:07;78420.28;;;-144.67;77.79
47522;BME280;32291;52.010;4.446;2023-04-28T04:16:09;78418.13;;;-144.67;78.05
47522;BME280;32291;52.010;4.446;2023-04-28T04:17:10;78416.00;;;-144.67;78.00
47522;BME280;32291;52.010;4.446;2023-04-28T04:18:12;78424.56;;;-144.67;77.90
47522;BME280;32291;52.010;4.446;2023-04-28T04:19:15;78428.84;;;-144.67;77.88
47522;BME280;32291;52.010;4.446;2023-04-28T04:20:17;78428.84;;;-144.67;78.10
47522;BME280;32291;52.010;4.446;2023-04-28T04:21:19;78430.97;;;-144.67;78.16
47522;BME280;32291;52.010;4.446;2023-04-28T04:22:21;78428.84;;;-144.67;78.00
47522;BME280;32291;52.010;4.446;2023-04-28T04:23:23;78426.69;;;-144.67;78.20
47522;BME280;32291;52.010;4.446;2023-04-28T04:24:24;78420.28;;;-144.67;78.27
47522;BME280;32291;52.010;4.446;2023-04-28T04:25:26;78420.28;;;-144.67;78.06
47522;BME280;32291;52.010;4.446;2023-04-28T04:26:28;78422.41;;;-144.67;77.86
47522;BME280;32291;52.010;4.446;2023-04-28T04:27:29;78424.56;;;-144.67;77.93
47522;BME280;32291;52.010;4.446;2023-04-28T04:28:31;78426.69;;;-144.67;78.17
47522;BME280;32291;52.010;4.446;2023-04-28T04:29:32;78422.41;;;-144.67;78.00
47522;BME280;32291;52.010;4.446;2023-04-28T04:30:34;78426.69;;;-144.67;78.14
47522;BME280;32291;52.010;4.446;2023-04-28T04:31:36;78435.25;;;-144.67;78.12
47522;BME280;32291;52.010;4.446;2023-04-28T04:32:38;78430.97;;;-144.67;78.42
47522;BME280;32291;52.010;4.446;2023-04-28T04:33:39;78428.84;;;-144.67;78.67
47522;BME280;32291;52.010;4.446;2023-04-28T04:34:41;78428.84;;;-144.67;78.28
47522;BME280;32291;52.010;4.446;2023-04-28T04:35:43;78420.28;;;-144.67;78.22
47522;BME280;32291;52.010;4.446;2023-04-28T04:36:44;78407.44;;;-144.67;78.31
47522;BME280;32291;52.010;4.446;2023-04-28T04:37:46;78411.72;;;-144.67;78.37
47522;BME280;32291;52.010;4.446;2023-04-28T04:38:49;78413.84;;;-144.67;78.50
47522;BME280;32291;52.010;4.446;2023-04-28T04:39:50;78420.28;;;-144.67;78.58
47522;BME280;32291;52.010;4.446;2023-04-28T04:40:53;78428.84;;;-144.67;79.11
47522;BME280;32291;52.010;4.446;2023-04-28T04:41:54;78435.25;;;-144.67;79.58
47522;BME280;32291;52.010;4.446;2023-04-28T04:42:56;78441.69;;;-144.67;80.12
47522;BME280;32291;52.010;4.446;2023-04-28T04:43:57;78445.97;;;-144.67;81.07
47522;BME280;32291;52.010;4.446;2023-04-28T04:44:59;78454.53;;;-144.67;81.78
47522;BME280;32291;52.010;4.446;2023-04-28T04:46:01;78458.81;;;-144.67;82.42
47522;BME280;32291;52.010;4.446;2023-04-28T04:47:04;78469.53;;;-144.67;83.18
47522;BME280;32291;52.010;4.446;2023-04-28T04:48:06;78475.94;;;-144.67;83.54
47522;BME280;32291;52.010;4.446;2023-04-28T04:49:08;78486.66;;;-144.67;84.04
47522;BME280;32291;52.010;4.446;2023-04-28T04:50:11;78482.38;;;-144.67;84.38
47522;BME280;32291;52.010;4.446;2023-04-28T04:51:13;78480.22;;;-144.67;84.78
47522;BME280;32291;52.010;4.446;2023-04-28T04:52:15;78480.22;;;-144.67;85.17
47522;BME280;32291;52.010;4.446;2023-04-28T04:53:17;78473.81;;;-144.67;85.51
47522;BME280;32291;52.010;4.446;2023-04-28T04:54:19;78480.22;;;-144.67;86.29
47522;BME280;32291;52.010;4.446;2023-04-28T04:55:21;78482.38;;;-144.67;86.80
47522;BME280;32291;52.010;4.446;2023-04-28T04:56:23;78478.09;;;-144.67;87.47
47522;BME280;32291;52.010;4.446;2023-04-28T04:57:26;78488.78;;;-144.67;87.56
47522;BME280;32291;52.010;4.446;2023-04-28T04:58:28;78484.50;;;-144.67;88.19
47522;BME280;32291;52.010;4.446;2023-04-28T04:59:29;78486.66;;;-144.67;88.59
47522;BME280;32291;52.010;4.446;2023-04-28T05:00:31;78482.38;;;-144.67;89.00
47522;BME280;32291;52.010;4.446;2023-04-28T05:01:34;78488.78;;;-144.67;89.55
47522;BME280;32291;52.010;4.446;2023-04-28T05:02:36;78497.34;;;-144.67;90.00
47522;BME280;32291;52.010;4.446;2023-04-28T05:03:38;78497.34;;;-144.67;90.93
47522;BME280;32291;52.010;4.446;2023-04-28T05:04:40;78501.63;;;-144.67;91.95
47522;BME280;32291;52.010;4.446;2023-04-28T05:05:41;78493.06;;;-144.67;92.37
47522;BME280;32291;52.010;4.446;2023-04-28T05:06:43;78495.22;;;-144.67;93.10
47522;BME280;32291;52.010;4.446;2023-04-28T05:07:45;78499.50;;;-144.67;93.58
47522;BME280;32291;52.010;4.446;2023-04-28T05:08:47;78501.63;;;-144.67;94.12
47522;BME280;32291;52.010;4.446;2023-04-28T05:09:50;78497.34;;;-144.67;94.89
47522;BME280;32291;52.010;4.446;2023-04-28T05:10:53;78501.63;;;-144.67;95.42
47522;BME280;32291;52.010;4.446;2023-04-28T05:11:55;78499.50;;;-144.67;96.17
47522;BME280;32291;52.010;4.446;2023-04-28T05:12:57;78493.06;;;-144.67;96.81
47522;BME280;32291;52.010;4.446;2023-04-28T05:13:59;78493.06;;;-144.67;97.26
47522;BME280;32291;52.010;4.446;2023-04-28T05:15:02;78493.06;;;-144.67;98.35
47522;BME280;32291;52.010;4.446;2023-04-28T05:16:05;78495.22;;;-144.67;99.21
47522;BME280;32291;52.010;4.446;2023-04-28T05:17:07;78501.63;;;-144.67;100.00
47522;BME280;32291;52.010;4.446;2023-04-28T05:18:10;78510.19;;;-144.67;100.00
47522;BME280;32291;52.010;4.446;2023-04-28T05:19:14;78510.19;;;-144.67;100.00
47522;BME280;32291;52.010;4.446;2023-04-28T05:20:16;78514.47;;;-144.67;100.00
47522;BME280;32291;52.010;4.446;2023-04-28T05:21:18;78514.47;;;-144.67;100.00